Time;durP1;ratioP1;P1;durP2;ratioP2;P2;SDS_P1;SDS_P2;PMS_P1;PMS_P2;Temp;Humidity;BMP_temperature;BMP_pressure;BME280_temperature;BME280_humidity;BME280_pressure;Samples;Min_cycle;Max_cycle;Signal;HPM_P1;HPM_P2
2021/09/04 00:01:07;;;;;;;;;;;10.30;99.90;;;;;;5090912;28;19915;-72
2021/09/04 00:03:32;;;;;;;;;;;10.30;99.90;;;;;;5091246;28;19908;-72
2021/09/04 00:05:57;;;;;;;;;;;10.10;99.90;;;;;;5091008;28;20408;-72
2021/09/04 00:08:23;;;;;;;;;;;10.20;99.90;;;;;;5091036;28;19916;-72
2021/09/04 00:10:48;;;;;;;;;;;10.10;99.90;;;;;;5091092;28;20395;-72
2021/09/04 00:13:14;;;;;;;;;;;10.10;99.90;;;;;;5091181;28;20006;-72
2021/09/04 00:15:40;;;;;;;;;;;10.10;99.90;;;;;;5091251;28;19999;-72
2021/09/04 00:18:05;;;;;;;;;;;10.00;99.90;;;;;;5090881;28;19908;-72
2021/09/04 00:20:31;;;;;;;;;;;9.90;99.90;;;;;;5090969;28;20437;-72
2021/09/04 00:22:56;;;;;;;;;;;9.90;99.90;;;;;;5090971;28;20331;-72
2021/09/04 00:25:22;;;;;;;;;;;9.90;99.90;;;;;;5091066;28;19908;-72
2021/09/04 00:27:48;;;;;;;;;;;9.90;99.90;;;;;;5090363;28;19912;-72
2021/09/04 00:30:14;;;;;;;;;;;9.80;99.90;;;;;;5087065;28;19951;-72
2021/09/04 00:32:40;;;;;;;;;;;9.80;99.90;;;;;;5094832;28;19981;-72
2021/09/04 00:35:05;;;;;;;;;;;9.80;99.90;;;;;;5094710;28;19908;-72
2021/09/04 00:37:31;;;;;;;;;;;9.80;99.90;;;;;;5094331;28;19908;-72
2021/09/04 00:39:57;;;;;;;;;;;9.70;99.90;;;;;;5094852;28;19908;-72
2021/09/04 00:42:22;;;;;;;;;;;9.70;99.90;;;;;;5094788;28;19908;-72
2021/09/04 00:44:48;;;;;;;;;;;9.70;99.90;;;;;;5094860;28;19953;-72
2021/09/04 00:47:13;;;;;;;;;;;9.70;99.90;;;;;;5110217;28;20257;-72
2021/09/04 00:49:39;;;;;;;;;;;9.80;99.90;;;;;;5114932;28;19908;-72
2021/09/04 00:52:05;;;;;;;;;;;9.80;99.90;;;;;;5114811;28;19912;-72
2021/09/04 00:54:31;;;;;;;;;;;9.80;99.90;;;;;;5115003;28;20314;-72
2021/09/04 00:56:57;;;;;;;;;;;9.70;99.90;;;;;;5114547;28;19915;-72
2021/09/04 00:59:22;;;;;;;;;;;9.80;99.90;;;;;;5099773;28;19955;-72
2021/09/04 01:01:48;;;;;;;;;;;9.70;99.90;;;;;;5114409;28;20360;-72
2021/09/04 01:04:13;;;;;;;;;;;9.60;99.90;;;;;;5115081;28;19908;-72
2021/09/04 01:06:39;;;;;;;;;;;9.60;99.90;;;;;;5114192;28;20044;-72
2021/09/04 01:09:04;;;;;;;;;;;9.60;99.90;;;;;;5114652;28;19908;-72
2021/09/04 01:11:30;;;;;;;;;;;9.60;99.90;;;;;;5114559;28;19934;-72
2021/09/04 01:13:56;;;;;;;;;;;9.50;99.90;;;;;;5114613;28;19908;-72
2021/09/04 01:16:22;;;;;;;;;;;9.50;99.90;;;;;;5114208;28;19907;-72
2021/09/04 01:18:47;;;;;;;;;;;9.50;99.90;;;;;;5096113;28;19930;-72
2021/09/04 01:21:13;;;;;;;;;;;9.50;99.90;;;;;;5114234;28;20003;-72
2021/09/04 01:23:39;;;;;;;;;;;9.60;99.90;;;;;;5114455;28;20318;-72
2021/09/04 01:26:11;;;;;;;;;;;9.60;99.90;;;;;;5113060;28;20371;-72
2021/09/04 01:28:37;;;;;;;;;;;9.50;99.90;;;;;;5100003;28;19919;-72
2021/09/04 01:31:04;;;;;;;;;;;9.60;99.90;;;;;;5113377;28;19929;-73
2021/09/04 01:33:30;;;;;;;;;;;9.50;99.90;;;;;;5114161;28;19918;-72
2021/09/04 01:35:55;;;;;;;;;;;9.40;99.90;;;;;;5114063;28;20280;-72
2021/09/04 01:38:21;;;;;;;;;;;9.30;99.90;;;;;;5095529;28;20437;-72
2021/09/04 01:40:46;;;;;;;;;;;9.20;99.90;;;;;;5113608;28;19908;-72
2021/09/04 01:43:12;;;;;;;;;;;9.20;99.90;;;;;;5114083;28;20531;-72
2021/09/04 01:45:37;;;;;;;;;;;9.20;99.90;;;;;;5113977;28;20364;-72
2021/09/04 01:48:03;;;;;;;;;;;9.10;99.90;;;;;;5113586;28;19912;-72
2021/09/04 01:50:29;;;;;;;;;;;9.20;99.90;;;;;;5113982;28;19911;-73
2021/09/04 01:52:54;;;;;;;;;;;9.20;99.90;;;;;;5095770;28;19914;-72
2021/09/04 01:55:21;;;;;;;;;;;9.20;99.90;;;;;;5114004;28;19908;-72
2021/09/04 01:57:46;;;;;;;;;;;9.20;99.90;;;;;;5113535;28;19908;-72
2021/09/04 02:00:12;;;;;;;;;;;9.30;99.90;;;;;;5093300;28;19915;-73
2021/09/04 02:02:38;;;;;;;;;;;9.20;99.90;;;;;;5093197;28;19908;-72
2021/09/04 02:05:04;;;;;;;;;;;9.30;99.90;;;;;;5093417;28;19908;-72
2021/09/04 02:07:30;;;;;;;;;;;9.30;99.90;;;;;;5092953;28;19923;-71
2021/09/04 02:09:56;;;;;;;;;;;9.20;99.90;;;;;;5093335;28;19908;-72
2021/09/04 02:12:21;;;;;;;;;;;9.30;99.90;;;;;;5091886;28;19944;-73
2021/09/04 02:14:47;;;;;;;;;;;9.20;99.90;;;;;;5093256;28;19908;-72
2021/09/04 02:17:12;;;;;;;;;;;9.10;99.90;;;;;;5092708;28;20373;-72
2021/09/04 02:19:38;;;;;;;;;;;9.00;99.90;;;;;;5093119;28;20304;-72
2021/09/04 02:22:03;;;;;;;;;;;8.90;99.90;;;;;;5093252;28;19915;-72
2021/09/04 02:24:29;;;;;;;;;;;9.00;99.90;;;;;;5093047;28;19908;-72
2021/09/04 02:26:55;;;;;;;;;;;9.00;99.90;;;;;;5092539;28;19919;-72
2021/09/04 02:29:21;;;;;;;;;;;9.00;99.90;;;;;;5085348;28;20422;-72
2021/09/04 02:31:46;;;;;;;;;;;8.90;99.90;;;;;;5092521;28;20019;-72
2021/09/04 02:34:12;;;;;;;;;;;9.00;99.90;;;;;;5092900;28;19962;-72
2021/09/04 02:36:37;;;;;;;;;;;9.20;99.90;;;;;;5092481;28;20407;-72
2021/09/04 02:39:03;;;;;;;;;;;9.10;99.90;;;;;;5092967;28;19915;-71
2021/09/04 02:41:28;;;;;;;;;;;9.00;99.90;;;;;;5092956;28;20003;-72
2021/09/04 02:43:54;;;;;;;;;;;9.00;99.90;;;;;;5092707;28;19916;-71
2021/09/04 02:46:19;;;;;;;;;;;8.90;99.90;;;;;;5100455;28;20359;-72
2021/09/04 02:48:45;;;;;;;;;;;9.10;99.90;;;;;;5112927;28;19921;-72
2021/09/04 02:51:10;;;;;;;;;;;9.10;99.90;;;;;;5112068;28;19908;-72
2021/09/04 02:53:36;;;;;;;;;;;9.00;99.90;;;;;;5112733;28;19916;-72
2021/09/04 02:56:01;;;;;;;;;;;9.10;99.90;;;;;;5112455;28;19954;-72
2021/09/04 02:58:27;;;;;;;;;;;9.00;99.90;;;;;;5101118;28;19909;-72
2021/09/04 03:00:52;;;;;;;;;;;8.90;99.90;;;;;;5108840;28;20340;-72
2021/09/04 03:03:18;;;;;;;;;;;8.80;99.90;;;;;;5113030;28;19908;-72
2021/09/04 03:05:44;;;;;;;;;;;9.00;99.90;;;;;;5112696;28;19908;-72
2021/09/04 03:08:10;;;;;;;;;;;9.00;99.90;;;;;;5112106;28;19968;-72
2021/09/04 03:10:36;;;;;;;;;;;8.90;99.90;;;;;;5112617;28;19916;-72
2021/09/04 03:13:01;;;;;;;;;;;8.80;99.90;;;;;;5112384;28;20402;-72
2021/09/04 03:15:27;;;;;;;;;;;8.70;99.90;;;;;;5112252;28;19908;-72
2021/09/04 03:17:53;;;;;;;;;;;8.70;99.90;;;;;;5112335;28;19908;-72
2021/09/04 03:20:19;;;;;;;;;;;8.70;99.90;;;;;;5112302;28;19908;-71
2021/09/04 03:22:44;;;;;;;;;;;8.70;99.90;;;;;;5112292;28;19914;-72
2021/09/04 03:25:10;;;;;;;;;;;8.80;99.90;;;;;;5112233;28;19911;-72
2021/09/04 03:27:36;;;;;;;;;;;8.80;99.90;;;;;;5111799;28;20364;-72
2021/09/04 03:30:01;;;;;;;;;;;8.80;99.90;;;;;;5096783;28;19908;-72
2021/09/04 03:32:27;;;;;;;;;;;8.80;99.90;;;;;;5111954;28;19915;-72
2021/09/04 03:34:52;;;;;;;;;;;8.80;99.90;;;;;;5112031;28;19908;-72
2021/09/04 03:37:19;;;;;;;;;;;8.90;99.90;;;;;;5111839;28;20372;-72
2021/09/04 03:39:44;;;;;;;;;;;8.90;99.90;;;;;;5112224;28;19907;-71
2021/09/04 03:42:10;;;;;;;;;;;8.90;99.90;;;;;;5112036;28;19912;-72
2021/09/04 03:44:36;;;;;;;;;;;8.70;99.90;;;;;;5111911;28;20422;-72
2021/09/04 03:47:02;;;;;;;;;;;8.70;99.90;;;;;;5111338;28;19938;-72
2021/09/04 03:49:28;;;;;;;;;;;8.70;99.90;;;;;;5111812;28;19908;-72
2021/09/04 03:51:53;;;;;;;;;;;8.50;99.90;;;;;;5111873;28;19952;-72
2021/09/04 03:54:19;;;;;;;;;;;8.50;99.90;;;;;;5111912;28;19919;-72
2021/09/04 03:56:44;;;;;;;;;;;8.50;99.90;;;;;;5111480;28;19912;-72
2021/09/04 03:59:10;;;;;;;;;;;8.50;99.90;;;;;;5096674;28;19919;-73
2021/09/04 04:01:35;;;;;;;;;;;8.40;99.90;;;;;;5111528;28;20352;-72
2021/09/04 04:04:01;;;;;;;;;;;8.40;99.90;;;;;;5115037;28;19908;-72
2021/09/04 04:06:26;;;;;;;;;;;8.40;99.90;;;;;;5115553;28;19911;-72
2021/09/04 04:08:53;;;;;;;;;;;8.30;99.90;;;;;;5116077;28;19914;-72
2021/09/04 04:11:19;;;;;;;;;;;8.30;99.90;;;;;;5115903;28;19912;-72
2021/09/04 04:13:44;;;;;;;;;;;8.40;99.90;;;;;;5115765;28;19908;-72
2021/09/04 04:16:10;;;;;;;;;;;8.40;99.90;;;;;;5115338;28;19912;-72
2021/09/04 04:18:35;;;;;;;;;;;8.40;99.90;;;;;;5115731;28;19912;-72
2021/09/04 04:21:01;;;;;;;;;;;8.50;99.90;;;;;;5115753;28;19908;-72
2021/09/04 04:23:26;;;;;;;;;;;8.30;99.90;;;;;;5115801;28;19931;-72
2021/09/04 04:25:52;;;;;;;;;;;8.50;99.90;;;;;;5115674;28;19908;-71
2021/09/04 04:28:18;;;;;;;;;;;8.50;99.90;;;;;;5106078;28;20285;-72
2021/09/04 04:30:44;;;;;;;;;;;8.60;99.90;;;;;;5109206;28;20003;-72
2021/09/04 04:33:10;;;;;;;;;;;8.50;99.90;;;;;;5115636;28;19997;-72
2021/09/04 04:35:35;;;;;;;;;;;8.30;99.90;;;;;;5115493;28;20398;-72
2021/09/04 04:38:01;;;;;;;;;;;8.30;99.90;;;;;;5096743;28;20056;-73
2021/09/04 04:40:27;;;;;;;;;;;8.30;99.90;;;;;;5115354;28;19912;-72
2021/09/04 04:42:52;;;;;;;;;;;8.30;99.90;;;;;;5115328;28;19912;-72
2021/09/04 04:45:18;;;;;;;;;;;8.40;99.90;;;;;;5115083;28;20408;-72
2021/09/04 04:47:43;;;;;;;;;;;8.40;99.90;;;;;;5114628;28;19923;-72
2021/09/04 04:50:09;;;;;;;;;;;8.40;99.90;;;;;;5115127;28;19929;-71
2021/09/04 04:52:34;;;;;;;;;;;8.40;99.90;;;;;;5115095;28;19951;-72
2021/09/04 04:55:00;;;;;;;;;;;8.30;99.90;;;;;;5115162;28;20006;-72
2021/09/04 04:57:25;;;;;;;;;;;8.40;99.90;;;;;;5114618;28;20376;-71
2021/09/04 04:59:51;;;;;;;;;;;8.30;99.90;;;;;;5107524;28;19911;-71
2021/09/04 05:02:16;;;;;;;;;;;8.30;99.90;;;;;;5114654;28;20002;-72
2021/09/04 05:04:42;;;;;;;;;;;8.30;99.90;;;;;;5114844;28;19908;-72
2021/09/04 05:07:07;;;;;;;;;;;8.30;99.90;;;;;;5114411;28;19918;-71
2021/09/04 05:09:33;;;;;;;;;;;8.30;99.90;;;;;;5114803;28;19908;-71
2021/09/04 05:11:58;;;;;;;;;;;8.30;99.90;;;;;;5114660;28;19930;-72
2021/09/04 05:14:24;;;;;;;;;;;8.40;99.90;;;;;;5113387;28;19908;-72
2021/09/04 05:16:49;;;;;;;;;;;8.40;99.90;;;;;;5114346;28;19912;-72
2021/09/04 05:19:15;;;;;;;;;;;8.40;99.90;;;;;;5114276;28;20042;-72
2021/09/04 05:21:40;;;;;;;;;;;8.40;99.90;;;;;;5114423;28;19908;-72
2021/09/04 05:24:06;;;;;;;;;;;8.50;99.90;;;;;;5114458;28;20304;-72
2021/09/04 05:26:31;;;;;;;;;;;8.60;99.90;;;;;;5114020;28;19918;-72
2021/09/04 05:28:57;;;;;;;;;;;8.50;99.90;;;;;;5104070;28;19908;-71
2021/09/04 05:31:22;;;;;;;;;;;8.50;99.90;;;;;;5093666;28;19914;-72
2021/09/04 05:33:48;;;;;;;;;;;8.60;99.90;;;;;;5093926;28;19961;-72
2021/09/04 05:36:13;;;;;;;;;;;8.60;99.90;;;;;;5093782;28;20007;-71
2021/09/04 05:38:39;;;;;;;;;;;8.60;99.90;;;;;;5093778;28;20014;-71
2021/09/04 05:41:06;;;;;;;;;;;8.70;99.90;;;;;;5093673;28;19923;-72
2021/09/04 05:43:31;;;;;;;;;;;8.70;99.90;;;;;;5093610;28;19914;-72
2021/09/04 05:45:57;;;;;;;;;;;8.80;99.90;;;;;;5098767;28;19995;-71
2021/09/04 05:48:22;;;;;;;;;;;8.90;99.90;;;;;;5113660;28;20288;-72
2021/09/04 05:50:48;;;;;;;;;;;9.00;99.90;;;;;;5113883;28;20403;-72
2021/09/04 05:53:13;;;;;;;;;;;9.10;99.90;;;;;;5114097;28;19915;-72
2021/09/04 05:55:39;;;;;;;;;;;9.10;99.90;;;;;;5113741;28;20289;-72
2021/09/04 05:58:05;;;;;;;;;;;9.20;99.90;;;;;;5089519;28;19939;-72
2021/09/04 06:00:30;;;;;;;;;;;9.30;99.90;;;;;;5103907;28;19962;-72
2021/09/04 06:02:56;;;;;;;;;;;9.40;99.90;;;;;;5113623;28;19907;-71
2021/09/04 06:05:21;;;;;;;;;;;9.40;99.90;;;;;;5113810;28;19907;-71
2021/09/04 06:07:47;;;;;;;;;;;9.50;99.90;;;;;;5113161;28;19922;-72
2021/09/04 06:10:12;;;;;;;;;;;9.60;99.90;;;;;;5113586;28;19958;-71
2021/09/04 06:12:38;;;;;;;;;;;9.80;99.90;;;;;;5113320;28;20300;-72
2021/09/04 06:15:04;;;;;;;;;;;9.90;99.90;;;;;;5113444;28;19990;-71
2021/09/04 06:17:29;;;;;;;;;;;10.00;99.90;;;;;;5112987;28;19908;-72
2021/09/04 06:19:55;;;;;;;;;;;10.10;99.90;;;;;;5113635;28;19969;-72
2021/09/04 06:22:20;;;;;;;;;;;10.20;99.90;;;;;;5113304;28;19908;-72
2021/09/04 06:24:46;;;;;;;;;;;10.30;99.90;;;;;;5113256;28;19958;-72
2021/09/04 06:27:11;;;;;;;;;;;10.40;99.90;;;;;;5093502;28;20294;-72
2021/09/04 06:29:37;;;;;;;;;;;10.50;99.90;;;;;;5097893;28;19912;-72
2021/09/04 06:32:05;;;;;;;;;;;10.60;99.90;;;;;;5113060;28;19908;-72
2021/09/04 06:34:30;;;;;;;;;;;10.80;99.90;;;;;;5113080;28;19918;-72
2021/09/04 06:36:56;;;;;;;;;;;11.00;99.90;;;;;;5112800;28;19908;-72
2021/09/04 06:39:21;;;;;;;;;;;11.10;99.90;;;;;;5112925;28;19953;-72
2021/09/04 06:41:47;;;;;;;;;;;11.30;99.90;;;;;;5111905;28;20049;-72
2021/09/04 06:44:12;;;;;;;;;;;11.40;99.90;;;;;;5112528;28;19955;-71
2021/09/04 06:46:38;;;;;;;;;;;11.50;99.90;;;;;;5112189;28;20295;-71
2021/09/04 06:49:03;;;;;;;;;;;11.60;99.90;;;;;;5112832;28;19908;-72
2021/09/04 06:51:29;;;;;;;;;;;11.80;99.90;;;;;;5112556;28;19969;-72
2021/09/04 06:53:54;;;;;;;;;;;11.90;99.90;;;;;;5112677;28;19931;-72
2021/09/04 06:56:20;;;;;;;;;;;12.00;99.90;;;;;;5112073;28;19935;-72
2021/09/04 06:58:45;;;;;;;;;;;12.20;99.90;;;;;;5103876;28;20384;-72
2021/09/04 07:01:11;;;;;;;;;;;12.50;99.90;;;;;;5091802;28;19908;-72
2021/09/04 07:03:36;;;;;;;;;;;12.60;99.90;;;;;;5092066;28;20368;-72
2021/09/04 07:06:03;;;;;;;;;;;12.80;99.90;;;;;;5091807;28;20275;-72
2021/09/04 07:08:28;;;;;;;;;;;12.90;99.90;;;;;;5091961;28;20011;-72
2021/09/04 07:10:54;;;;;;;;;;;13.10;99.90;;;;;;5091850;28;19919;-72
2021/09/04 07:13:19;;;;;;;;;;;13.40;99.90;;;;;;5091850;28;19915;-72
2021/09/04 07:15:44;;;;;;;;;;;13.50;99.90;;;;;;5091796;28;19908;-72
2021/09/04 07:18:10;;;;;;;;;;;13.60;99.90;;;;;;5091648;28;20394;-72
2021/09/04 07:20:35;;;;;;;;;;;13.80;99.90;;;;;;5091965;28;20034;-72
2021/09/04 07:23:01;;;;;;;;;;;14.00;99.90;;;;;;5091820;28;19908;-72
2021/09/04 07:25:27;;;;;;;;;;;14.30;99.90;;;;;;5091704;28;19908;-72
2021/09/04 07:27:52;;;;;;;;;;;14.60;99.90;;;;;;5090300;28;19919;-72
2021/09/04 07:30:18;;;;;;;;;;;15.70;99.90;;;;;;5085091;28;19908;-72
2021/09/04 07:32:43;;;;;;;;;;;17.10;99.90;;;;;;5091561;28;19951;-72
2021/09/04 07:35:10;;;;;;;;;;;18.20;99.90;;;;;;5091860;28;19943;-70
2021/09/04 07:37:35;;;;;;;;;;;19.20;99.90;;;;;;5090978;28;19955;-70
2021/09/04 07:40:01;;;;;;;;;;;20.00;99.90;;;;;;5091744;28;20338;-70
2021/09/04 07:42:26;;;;;;;;;;;20.40;99.90;;;;;;5090217;28;19908;-70
2021/09/04 07:44:52;;;;;;;;;;;20.80;99.90;;;;;;5091546;28;19940;-70
2021/09/04 07:47:17;;;;;;;;;;;21.40;99.90;;;;;;5107607;28;20288;-70
2021/09/04 07:49:44;;;;;;;;;;;22.00;99.90;;;;;;5111238;28;20174;-70
2021/09/04 07:52:10;;;;;;;;;;;22.30;99.90;;;;;;5111723;28;19912;-71
2021/09/04 07:54:35;;;;;;;;;;;22.40;99.90;;;;;;5111764;28;20006;-70
2021/09/04 07:57:01;;;;;;;;;;;22.10;99.90;;;;;;5111254;28;20389;-70
2021/09/04 07:59:27;;;;;;;;;;;22.90;99.90;;;;;;5096675;28;19959;-71
2021/09/04 08:01:52;;;;;;;;;;;23.30;99.90;;;;;;5111488;28;19914;-70
2021/09/04 08:04:17;;;;;;;;;;;23.70;99.90;;;;;;5111886;28;19907;-70
2021/09/04 08:06:43;;;;;;;;;;;23.90;99.90;;;;;;5111245;28;20253;-70
2021/09/04 08:09:08;;;;;;;;;;;24.50;99.90;;;;;;5111661;28;19955;-70
2021/09/04 08:11:34;;;;;;;;;;;24.50;99.90;;;;;;5111567;28;20048;-70
2021/09/04 08:14:00;;;;;;;;;;;25.10;99.90;;;;;;5111544;28;20417;-73
2021/09/04 08:16:26;;;;;;;;;;;24.80;99.90;;;;;;5111207;28;19915;-70
2021/09/04 08:18:51;;;;;;;;;;;25.20;99.90;;;;;;5111707;28;19907;-70
2021/09/04 08:21:17;;;;;;;;;;;25.70;99.90;;;;;;5111363;28;19908;-70
2021/09/04 08:23:42;;;;;;;;;;;25.10;99.90;;;;;;5111333;28;19907;-70
2021/09/04 08:26:08;;;;;;;;;;;25.70;99.90;;;;;;5111137;28;19912;-70
2021/09/04 08:28:33;;;;;;;;;;;26.40;99.90;;;;;;5098041;28;19912;-71
2021/09/04 08:30:59;;;;;;;;;;;26.50;99.90;;;;;;5109434;28;19952;-71
2021/09/04 08:33:24;;;;;;;;;;;26.50;99.90;;;;;;5111516;28;20330;-71
2021/09/04 08:35:50;;;;;;;;;;;26.80;99.70;;;;;;5111394;28;20302;-71
2021/09/04 08:38:15;;;;;;;;;;;27.30;99.80;;;;;;5111485;28;20360;-71
2021/09/04 08:40:42;;;;;;;;;;;27.10;99.70;;;;;;5111163;28;19915;-71
2021/09/04 08:43:07;;;;;;;;;;;26.90;99.70;;;;;;5111227;28;20283;-71
2021/09/04 08:45:33;;;;;;;;;;;27.20;98.90;;;;;;5111196;28;19908;-71
2021/09/04 08:48:00;;;;;;;;;;;26.90;98.80;;;;;;5092658;28;19912;-71
2021/09/04 08:50:26;;;;;;;;;;;27.20;97.80;;;;;;5113130;28;19907;-71
2021/09/04 08:52:51;;;;;;;;;;;27.70;98.70;;;;;;5112995;28;19907;-71
2021/09/04 08:55:17;;;;;;;;;;;27.30;95.90;;;;;;5113794;28;20663;-71
2021/09/04 08:57:42;;;;;;;;;;;27.50;98.70;;;;;;5114623;28;20521;-70
2021/09/04 09:00:08;;;;;;;;;;;28.20;97.20;;;;;;5094731;28;20311;-71
2021/09/04 09:02:34;;;;;;;;;;;28.30;96.90;;;;;;5094424;28;20373;-71
2021/09/04 09:05:04;;;;;;;;;;;28.90;96.90;;;;;;5094450;28;19916;-71
2021/09/04 09:07:38;;;;;;;;;;;29.00;94.40;;;;;;5093852;28;19913;-71
2021/09/04 09:10:04;;;;;;;;;;;28.90;95.10;;;;;;5094316;28;19908;-71
2021/09/04 09:12:29;;;;;;;;;;;28.90;94.50;;;;;;5094117;28;19908;-71
2021/09/04 09:14:56;;;;;;;;;;;29.70;95.10;;;;;;5094236;28;19908;-71
2021/09/04 09:17:23;;;;;;;;;;;30.30;93.00;;;;;;5093820;28;19953;-71
2021/09/04 09:19:48;;;;;;;;;;;30.00;93.30;;;;;;5093823;28;20003;-71
2021/09/04 09:22:15;;;;;;;;;;;29.60;93.60;;;;;;5093748;28;20002;-71
2021/09/04 09:24:41;;;;;;;;;;;29.90;93.90;;;;;;5094013;28;19908;-71
2021/09/04 09:27:06;;;;;;;;;;;29.90;92.70;;;;;;5093428;28;19938;-71
2021/09/04 09:29:33;;;;;;;;;;;29.70;93.00;;;;;;5086307;28;19960;-71
2021/09/04 09:32:03;;;;;;;;;;;30.20;93.50;;;;;;5093571;28;19908;-71
2021/09/04 09:34:29;;;;;;;;;;;30.30;93.00;;;;;;5093973;28;20419;-71
2021/09/04 09:36:56;;;;;;;;;;;30.90;90.90;;;;;;5093371;28;19908;-71
2021/09/04 09:39:26;;;;;;;;;;;30.00;90.00;;;;;;5093852;28;19908;-71
2021/09/04 09:41:52;;;;;;;;;;;30.90;87.20;;;;;;5093571;28;19909;-71
2021/09/04 09:44:19;;;;;;;;;;;30.10;91.70;;;;;;5093727;28;19909;-71
2021/09/04 09:46:54;;;;;;;;;;;30.40;90.50;;;;;;5104943;28;19959;-71
2021/09/04 09:49:39;;;;;;;;;;;29.80;90.40;;;;;;5113468;28;20092;-71
2021/09/04 09:52:06;;;;;;;;;;;30.90;90.00;;;;;;5113715;28;19908;-71
2021/09/04 09:54:32;;;;;;;;;;;30.30;85.10;;;;;;5114001;28;20404;-72
2021/09/04 09:56:59;;;;;;;;;;;31.60;83.10;;;;;;5113410;28;19914;-71
2021/09/04 09:59:28;;;;;;;;;;;30.70;82.30;;;;;;5098633;28;20003;-71
2021/09/04 10:02:02;;;;;;;;;;;31.20;83.60;;;;;;5113073;28;19908;-71
2021/09/04 10:04:29;;;;;;;;;;;31.40;78.70;;;;;;5113812;28;20344;-71
2021/09/04 10:06:55;;;;;;;;;;;31.10;81.90;;;;;;5113170;28;20008;-71
2021/09/04 10:09:23;;;;;;;;;;;31.30;78.40;;;;;;5113512;28;20399;-71
2021/09/04 10:11:50;;;;;;;;;;;32.10;81.60;;;;;;5113462;28;19931;-71
2021/09/04 10:14:16;;;;;;;;;;;32.40;75.80;;;;;;5113437;28;19989;-71
2021/09/04 10:16:42;;;;;;;;;;;31.30;79.80;;;;;;5112499;28;20014;-71
2021/09/04 10:19:08;;;;;;;;;;;31.60;75.70;;;;;;5110137;28;19908;-71
2021/09/04 10:21:38;;;;;;;;;;;32.20;76.60;;;;;;5109880;28;19914;-71
2021/09/04 10:24:04;;;;;;;;;;;32.20;82.40;;;;;;5109988;28;19908;-71
2021/09/04 10:26:31;;;;;;;;;;;32.80;76.30;;;;;;5110710;28;19908;-71
2021/09/04 10:29:13;;;;;;;;;;;33.20;75.70;;;;;;5096032;28;19916;-71
2021/09/04 10:31:44;;;;;;;;;;;34.00;72.20;;;;;;5111343;28;19908;-71
2021/09/04 10:34:13;;;;;;;;;;;31.80;73.60;;;;;;5112818;28;20380;-71
2021/09/04 10:36:51;;;;;;;;;;;32.90;74.30;;;;;;5112672;28;19950;-71
2021/09/04 10:39:17;;;;;;;;;;;33.30;72.20;;;;;;5112676;28;19923;-71
2021/09/04 10:41:42;;;;;;;;;;;33.80;69.40;;;;;;5112807;28;19912;-71
2021/09/04 10:44:08;;;;;;;;;;;33.30;67.30;;;;;;5112696;28;19908;-71
2021/09/04 10:46:34;;;;;;;;;;;33.70;74.30;;;;;;5112007;28;19966;-71
2021/09/04 10:49:01;;;;;;;;;;;33.10;69.80;;;;;;5112698;28;19980;-71
2021/09/04 10:51:43;;;;;;;;;;;33.30;71.90;;;;;;5112594;28;19908;-71
2021/09/04 10:54:08;;;;;;;;;;;33.30;72.00;;;;;;5112984;28;19960;-71
2021/09/04 10:56:36;;;;;;;;;;;33.50;65.60;;;;;;5112343;28;19908;-71
2021/09/04 10:59:02;;;;;;;;;;;33.60;63.60;;;;;;5097550;28;19953;-71
2021/09/04 11:01:52;;;;;;;;;;;33.90;67.80;;;;;;5112488;28;19908;-71
2021/09/04 11:04:18;;;;;;;;;;;34.50;67.30;;;;;;5112239;28;19912;-71
2021/09/04 11:06:49;;;;;;;;;;;34.30;63.90;;;;;;5111894;28;19911;-71
2021/09/04 11:09:16;;;;;;;;;;;34.50;61.30;;;;;;5112267;28;19915;-71
2021/09/04 11:11:42;;;;;;;;;;;34.70;61.50;;;;;;5112285;28;19960;-71
2021/09/04 11:14:28;;;;;;;;;;;33.80;65.80;;;;;;5111675;28;19908;-71
2021/09/04 11:16:55;;;;;;;;;;;34.60;63.20;;;;;;5111349;28;19915;-71
2021/09/04 11:19:22;;;;;;;;;;;33.90;60.70;;;;;;5112099;28;20477;-71
2021/09/04 11:21:50;;;;;;;;;;;34.90;60.70;;;;;;5112211;28;19908;-71
2021/09/04 11:24:35;;;;;;;;;;;34.40;62.20;;;;;;5111982;28;19998;-71
2021/09/04 11:27:11;;;;;;;;;;;34.70;59.30;;;;;;5111407;28;20257;-71
2021/09/04 11:29:40;;;;;;;;;;;34.60;61.70;;;;;;5097034;28;19908;-71
2021/09/04 11:32:05;;;;;;;;;;;34.30;59.50;;;;;;5111621;28;20002;-71
2021/09/04 11:34:37;;;;;;;;;;;34.30;60.00;;;;;;5112173;28;19988;-71
2021/09/04 11:37:21;;;;;;;;;;;33.40;59.90;;;;;;5112339;28;20375;-71
2021/09/04 11:39:48;;;;;;;;;;;34.60;64.00;;;;;;5111970;28;19915;-74
2021/09/04 11:42:17;;;;;;;;;;;33.20;62.00;;;;;;5111841;28;19951;-73
2021/09/04 11:44:50;;;;;;;;;;;31.80;62.90;;;;;;5112302;28;19958;-74
2021/09/04 11:47:16;;;;;;;;;;;31.90;64.80;;;;;;5111368;28;19916;-71
2021/09/04 11:49:45;;;;;;;;;;;30.40;65.00;;;;;;5111755;28;19915;-72
2021/09/04 11:52:20;;;;;;;;;;;30.80;65.70;;;;;;5111579;28;19912;-72
2021/09/04 11:54:46;;;;;;;;;;;31.50;64.20;;;;;;5111637;28;20026;-71
2021/09/04 11:57:21;;;;;;;;;;;30.80;68.70;;;;;;5111338;28;19994;-72
2021/09/04 12:00:16;;;;;;;;;;;30.80;69.00;;;;;;5096533;28;20371;-72
2021/09/04 12:02:43;;;;;;;;;;;31.10;62.30;;;;;;5089501;28;19908;-72
2021/09/04 12:05:09;;;;;;;;;;;30.90;61.40;;;;;;5111647;28;19916;-71
2021/09/04 12:07:35;;;;;;;;;;;30.20;62.60;;;;;;5111084;28;20292;-72
2021/09/04 12:10:01;;;;;;;;;;;28.40;65.30;;;;;;5111626;28;19912;-72
2021/09/04 12:12:27;;;;;;;;;;;25.50;71.30;;;;;;5111397;28;19908;-74
2021/09/04 12:14:54;;;;;;;;;;;24.60;74.90;;;;;;5111712;28;20395;-74
2021/09/04 12:17:19;;;;;;;;;;;24.30;77.90;;;;;;5109826;28;19908;-71
2021/09/04 12:19:45;;;;;;;;;;;23.60;80.00;;;;;;5108801;28;20310;-71
2021/09/04 12:22:10;;;;;;;;;;;23.70;78.90;;;;;;5110415;28;19919;-71
2021/09/04 12:24:36;;;;;;;;;;;23.50;78.60;;;;;;5117788;28;19915;-71
2021/09/04 12:27:03;;;;;;;;;;;23.10;77.40;;;;;;5118380;28;19918;-71
2021/09/04 12:29:29;;;;;;;;;;;23.10;77.60;;;;;;5104152;28;19931;-71
2021/09/04 12:32:06;;;;;;;;;;;23.10;80.80;;;;;;5101217;28;19908;-71
2021/09/04 12:34:32;;;;;;;;;;;23.00;88.00;;;;;;5116558;28;19914;-71
2021/09/04 12:36:58;;;;;;;;;;;23.20;77.20;;;;;;5115567;28;19998;-71
2021/09/04 12:39:24;;;;;;;;;;;22.90;72.00;;;;;;5115782;28;20360;-70
2021/09/04 12:42:22;;;;;;;;;;;22.60;75.80;;;;;;5115688;28;20411;-71
2021/09/04 12:44:47;;;;;;;;;;;22.50;70.50;;;;;;5059473;28;19946;-71
2021/09/04 12:47:14;;;;;;;;;;;22.60;75.90;;;;;;5097004;28;19959;-71
2021/09/04 12:49:50;;;;;;;;;;;23.00;81.10;;;;;;5115710;28;19912;-71
2021/09/04 12:52:27;;;;;;;;;;;22.90;81.10;;;;;;5115288;28;20380;-71
2021/09/04 12:54:52;;;;;;;;;;;22.90;81.00;;;;;;5114911;28;20291;-71
2021/09/04 12:57:25;;;;;;;;;;;22.90;80.90;;;;;;5114425;28;19929;-71
2021/09/04 13:00:00;;;;;;;;;;;23.00;82.50;;;;;;5099774;28;19923;-71
2021/09/04 13:02:27;;;;;;;;;;;22.90;81.20;;;;;;5114579;28;19914;-71
2021/09/04 13:04:53;;;;;;;;;;;22.50;78.90;;;;;;5114863;28;19930;-71
2021/09/04 13:07:18;;;;;;;;;;;22.60;82.60;;;;;;5114018;28;19919;-71
2021/09/04 13:09:44;;;;;;;;;;;22.70;80.70;;;;;;5114844;28;19908;-71
2021/09/04 13:12:10;;;;;;;;;;;22.60;81.10;;;;;;5114588;28;19908;-71
2021/09/04 13:14:36;;;;;;;;;;;22.70;80.50;;;;;;5114609;28;19919;-71
2021/09/04 13:17:05;;;;;;;;;;;22.70;81.20;;;;;;5114179;28;19953;-71
2021/09/04 13:19:31;;;;;;;;;;;22.80;80.40;;;;;;5114550;28;20261;-71
2021/09/04 13:21:56;;;;;;;;;;;22.60;82.70;;;;;;5114309;28;19914;-71
2021/09/04 13:24:22;;;;;;;;;;;22.70;79.60;;;;;;5114569;28;19908;-71
2021/09/04 13:26:47;;;;;;;;;;;22.70;81.20;;;;;;5114073;28;19981;-73
2021/09/04 13:29:13;;;;;;;;;;;22.60;82.30;;;;;;5099283;28;19927;-74
2021/09/04 13:31:43;;;;;;;;;;;22.90;83.20;;;;;;5114598;28;19908;-75
2021/09/04 13:34:12;;;;;;;;;;;22.70;82.20;;;;;;5115271;28;19908;-74
2021/09/04 13:36:38;;;;;;;;;;;22.60;80.60;;;;;;5114059;28;19973;-74
2021/09/04 13:39:03;;;;;;;;;;;22.60;82.70;;;;;;5114973;28;19915;-74
2021/09/04 13:41:29;;;;;;;;;;;22.50;80.30;;;;;;5114936;28;19908;-74
2021/09/04 13:43:54;;;;;;;;;;;22.70;81.10;;;;;;5115169;28;19908;-74
2021/09/04 13:46:20;;;;;;;;;;;22.70;80.30;;;;;;5114489;28;19927;-71
2021/09/04 13:48:45;;;;;;;;;;;22.70;82.10;;;;;;5114121;28;19912;-71
2021/09/04 13:51:11;;;;;;;;;;;22.80;82.10;;;;;;5113743;28;20011;-71
2021/09/04 13:53:36;;;;;;;;;;;22.80;79.70;;;;;;5114183;28;19908;-71
2021/09/04 13:56:02;;;;;;;;;;;22.90;79.40;;;;;;5113803;28;19918;-71
2021/09/04 13:58:27;;;;;;;;;;;22.70;82.80;;;;;;5102178;28;19908;-71
2021/09/04 14:00:53;;;;;;;;;;;22.70;83.20;;;;;;5110302;28;20402;-71
2021/09/04 14:03:18;;;;;;;;;;;22.70;86.60;;;;;;5095460;28;19953;-71
2021/09/04 14:05:44;;;;;;;;;;;22.70;82.80;;;;;;5113670;28;19908;-71
2021/09/04 14:08:09;;;;;;;;;;;22.70;89.90;;;;;;5113473;28;19915;-72
2021/09/04 14:10:35;;;;;;;;;;;22.70;82.40;;;;;;5113603;28;20012;-71
2021/09/04 14:13:00;;;;;;;;;;;23.00;83.70;;;;;;5113572;28;19919;-71
2021/09/04 14:15:26;;;;;;;;;;;22.90;81.50;;;;;;5113495;28;19974;-71
2021/09/04 14:17:51;;;;;;;;;;;22.80;83.40;;;;;;5113164;28;20374;-71
2021/09/04 14:20:17;;;;;;;;;;;23.00;84.60;;;;;;5113040;28;19908;-71